Tuesday, October 16, 2018, 10:53 PM GMT
Back to Local

CWJB, Ste Foy CS , Que.

Location: , , Canada Lat: 47.3
Local Time: 10:53 PM GMT (22:53 GMT) Lon: -71.267
Time Zone: GMT Elev: 298 ft

Show me the last for .
Show Coded

Time T Td Feel RH Dir Speed Gust Alt SLP Vis Weather Sky Remarks
2018-10-16 22:00 41 27 35 58 210° 8 - - - 0 Peak wind: 19 mph (17 kts) from 230° at 12 min
2018-10-16 21:00 42 27 37 53 210° 9 - - - 0 Peak wind: 24 mph (21 kts) from 210° at 00 min
2018-10-16 20:00 42 27 34 54 210° 9 21 - - 0 Peak wind: 20 mph (18 kts) from 210° at 59 min
2018-10-16 19:00 43 27 35 53 210° 8 17 - - 0 Peak wind: 27 mph (24 kts) from 210° at 15 min
2018-10-16 18:00 42 27 33 55 210° 10 22 - - 0 Peak wind: 25 mph (22 kts) from 240° at 03 min
2018-10-16 17:00 42 27 32 55 210° 9 22 - - 0 Peak wind: 21 mph (19 kts) from 220° at 59 min
2018-10-16 16:00 40 29 30 64 210° 12 24 - - 0 Peak wind: 24 mph (21 kts) from 220° at 53 min
2018-10-16 15:00 41 25 31 52 330° 9 23 - - 0 Peak wind: 23 mph (20 kts) from 330° at 53 min
2018-10-16 14:00 38 29 34 69 230° 6 - - - 0 Peak wind: 21 mph (19 kts) from 350° at 08 min
2018-10-16 13:00 39 27 30 61 210° 7 18 - - 0 None
2018-10-16 12:00 38 31 28 75 210° 8 18 - - 0 Peak wind: 28 mph (25 kts) from 220° at 05 min
2018-10-16 11:00 39 29 29 67 210° 10 23 - - 0 Peak wind: 28 mph (25 kts) from 210° at 06 min
2018-10-16 10:00 39 31 28 71 210° 14 26 - - 0 Peak wind: 32 mph (28 kts) from 150° at 18 min
2018-10-16 09:00 39 32 27 75 210° 17 29 - - 0 Peak wind: 37 mph (33 kts) from 220° at 15 min
2018-10-16 08:00 40 34 27 79 220° 17 32 - - 0 Peak wind: 36 mph (32 kts) from 220° at 12 min
2018-10-16 07:00 43 33 33 67 220° 16 30 - - 0 Peak wind: 29 mph (26 kts) from 230° at 55 min
2018-10-16 06:00 44 35 35 69 220° 13 24 - - 0 Peak wind: 33 mph (29 kts) from 240° at 02 min
2018-10-16 05:00 46 36 36 67 220° 22 38 - - 0 Peak wind: 37 mph (33 kts) from 230° at 53 min
1-hr Precip Total: 0.07"
2018-10-16 04:00 50 46 42 86 220° 14 26 - - 0 Peak wind: 26 mph (23 kts) from 200° at 56 min
2018-10-16 03:00 49 49 46 97 220° 8 - - - 0 None
2018-10-16 02:00 48 48 45 99 210° 7 - - - 0 1-hr Precip Total: 0.04"
2018-10-16 01:00 46 47 - 106 - Calm - - - 0 1-hr Precip Total: 0.08"
2018-10-16 00:00 47 47 - 98 40° 1 - - - 0 1-hr Precip Total: 0.12"
2018-10-15 23:00 46 46 45 98 100° 3 - - - 0 1-hr Precip Total: 0.07"

Support USWX by starting your Amazon purchase here.